sensor_id;sensor_type;location;lat;lon;timestamp;pressure;altitude;pressure_sealevel;temperature;humidity
79455;BME280;68900;52.134;5.420;2023-06-10T05:06:18;101700.28;;;19.30;56.70
79455;BME280;68900;52.134;5.420;2023-06-10T05:08:58;101704.44;;;19.26;57.21
79455;BME280;68900;52.134;5.420;2023-06-10T05:11:47;101700.16;;;19.24;57.44
79455;BME280;68900;52.134;5.420;2023-06-10T05:14:57;101697.44;;;19.38;57.69
79455;BME280;68900;52.134;5.420;2023-06-10T05:17:32;101699.31;;;19.46;57.26
79455;BME280;68900;52.134;5.420;2023-06-10T05:27:40;101701.56;;;19.57;57.43
79455;BME280;68900;52.134;5.420;2023-06-10T05:30:14;101701.44;;;19.65;57.30
79455;BME280;68900;52.134;5.420;2023-06-10T05:32:41;101703.06;;;19.60;57.03
79455;BME280;68900;52.134;5.420;2023-06-10T05:35:23;101700.63;;;19.65;57.65
79455;BME280;68900;52.134;5.420;2023-06-10T05:38:10;101704.97;;;19.74;57.22
79455;BME280;68900;52.134;5.420;2023-06-10T05:40:52;101718.25;;;19.77;57.20
79455;BME280;68900;52.134;5.420;2023-06-10T05:43:33;101712.97;;;19.75;57.35
79455;BME280;68900;52.134;5.420;2023-06-10T05:46:13;101712.22;;;19.81;57.02
79455;BME280;68900;52.134;5.420;2023-06-10T05:55:26;101720.31;;;20.04;56.71
79455;BME280;68900;52.134;5.420;2023-06-10T05:58:20;101715.22;;;20.01;56.80
79455;BME280;68900;52.134;5.420;2023-06-10T06:01:13;101716.13;;;20.08;56.72
79455;BME280;68900;52.134;5.420;2023-06-10T06:03:56;101712.63;;;20.14;56.40
79455;BME280;68900;52.134;5.420;2023-06-10T06:06:28;101708.66;;;20.17;56.51
79455;BME280;68900;52.134;5.420;2023-06-10T06:13:38;101712.41;;;20.31;55.80
79455;BME280;68900;52.134;5.420;2023-06-10T06:31:07;101701.69;;;20.71;54.79
79455;BME280;68900;52.134;5.420;2023-06-10T06:33:57;101703.44;;;20.79;55.49
79455;BME280;68900;52.134;5.420;2023-06-10T06:36:36;101707.75;;;20.88;54.61
79455;BME280;68900;52.134;5.420;2023-06-10T06:39:17;101708.63;;;20.95;54.25
79455;BME280;68900;52.134;5.420;2023-06-10T06:41:58;101710.59;;;21.01;54.33
79455;BME280;68900;52.134;5.420;2023-06-10T06:45:00;101699.75;;;21.14;54.21
79455;BME280;68900;52.134;5.420;2023-06-10T06:47:39;101701.97;;;21.26;53.87
79455;BME280;68900;52.134;5.420;2023-06-10T06:50:12;101702.81;;;21.26;53.54
79455;BME280;68900;52.134;5.420;2023-06-10T06:52:57;101706.63;;;21.32;53.70
79455;BME280;68900;52.134;5.420;2023-06-10T06:55:32;101702.28;;;21.44;53.65
79455;BME280;68900;52.134;5.420;2023-06-10T06:58:18;101702.13;;;21.52;52.63
79455;BME280;68900;52.134;5.420;2023-06-10T07:00:45;101703.63;;;21.54;52.14
79455;BME280;68900;52.134;5.420;2023-06-10T07:03:12;101714.66;;;21.61;52.31
79455;BME280;68900;52.134;5.420;2023-06-10T14:31:49;101544.69;;;31.49;23.26
79455;BME280;68900;52.134;5.420;2023-06-10T14:34:17;101543.03;;;31.53;23.08
79455;BME280;68900;52.134;5.420;2023-06-10T14:57:10;101534.19;;;31.72;21.82
79455;BME280;68900;52.134;5.420;2023-06-10T15:35:33;101507.63;;;31.64;23.48
79455;BME280;68900;52.134;5.420;2023-06-10T18:07:53;101506.25;;;29.45;26.50
79455;BME280;68900;52.134;5.420;2023-06-10T19:22:45;101564.31;;;27.63;30.99
79455;BME280;68900;52.134;5.420;2023-06-10T19:25:50;101564.22;;;27.58;30.49
79455;BME280;68900;52.134;5.420;2023-06-10T19:31:49;101563.00;;;27.42;29.65
79455;BME280;68900;52.134;5.420;2023-06-10T19:34:23;101572.56;;;27.35;29.76
79455;BME280;68900;52.134;5.420;2023-06-10T19:36:57;101571.16;;;27.20;30.02
79455;BME280;68900;52.134;5.420;2023-06-10T19:40:03;101575.25;;;27.06;30.04
79455;BME280;68900;52.134;5.420;2023-06-10T19:50:15;101584.16;;;26.85;30.66
79455;BME280;68900;52.134;5.420;2023-06-10T19:58:31;101596.28;;;26.49;30.74
79455;BME280;68900;52.134;5.420;2023-06-10T20:01:16;101588.81;;;26.50;31.01
79455;BME280;68900;52.134;5.420;2023-06-10T20:03:47;101592.78;;;26.42;30.54
79455;BME280;68900;52.134;5.420;2023-06-10T20:06:14;101590.84;;;26.31;30.60
79455;BME280;68900;52.134;5.420;2023-06-10T20:08:51;101596.38;;;26.31;31.35
79455;BME280;68900;52.134;5.420;2023-06-10T20:11:19;101600.84;;;26.14;30.89
79455;BME280;68900;52.134;5.420;2023-06-10T20:14:06;101600.56;;;26.04;32.04
79455;BME280;68900;52.134;5.420;2023-06-10T20:16:47;101604.78;;;26.06;31.27
79455;BME280;68900;52.134;5.420;2023-06-10T20:19:20;101603.44;;;25.97;31.11
79455;BME280;68900;52.134;5.420;2023-06-10T20:21:52;101614.28;;;25.80;31.98
79455;BME280;68900;52.134;5.420;2023-06-10T20:24:25;101609.00;;;25.79;32.04
79455;BME280;68900;52.134;5.420;2023-06-10T20:27:14;101613.91;;;25.77;31.67
79455;BME280;68900;52.134;5.420;2023-06-10T20:29:51;101609.94;;;25.73;32.11
79455;BME280;68900;52.134;5.420;2023-06-10T20:33:09;101607.53;;;25.76;31.93
79455;BME280;68900;52.134;5.420;2023-06-10T20:35:53;101611.69;;;25.67;32.33
79455;BME280;68900;52.134;5.420;2023-06-10T20:38:35;101627.69;;;25.65;32.28
79455;BME280;68900;52.134;5.420;2023-06-10T20:41:24;101613.56;;;25.55;32.25
79455;BME280;68900;52.134;5.420;2023-06-10T20:43:52;101633.97;;;25.54;32.74
79455;BME280;68900;52.134;5.420;2023-06-10T20:53:49;101634.03;;;25.29;32.59
79455;BME280;68900;52.134;5.420;2023-06-10T20:57:08;101632.03;;;25.18;33.55
79455;BME280;68900;52.134;5.420;2023-06-10T20:59:47;101635.69;;;25.12;34.20
79455;BME280;68900;52.134;5.420;2023-06-10T21:02:19;101642.56;;;25.03;35.10
79455;BME280;68900;52.134;5.420;2023-06-10T21:04:47;101641.34;;;24.99;34.73
79455;BME280;68900;52.134;5.420;2023-06-10T21:07:19;101635.91;;;24.92;34.61
79455;BME280;68900;52.134;5.420;2023-06-10T21:24:22;101653.19;;;24.50;36.01
79455;BME280;68900;52.134;5.420;2023-06-10T21:29:34;101645.44;;;24.34;37.12
79455;BME280;68900;52.134;5.420;2023-06-10T21:32:16;101656.94;;;24.31;37.15
79455;BME280;68900;52.134;5.420;2023-06-10T21:34:59;101658.00;;;24.23;37.15
79455;BME280;68900;52.134;5.420;2023-06-10T21:37:44;101649.97;;;24.15;37.28
79455;BME280;68900;52.134;5.420;2023-06-10T21:40:34;101651.94;;;24.08;37.66
79455;BME280;68900;52.134;5.420;2023-06-10T21:43:16;101660.22;;;24.08;37.88
79455;BME280;68900;52.134;5.420;2023-06-10T21:46:07;101654.91;;;24.06;37.53
79455;BME280;68900;52.134;5.420;2023-06-10T21:51:56;101661.16;;;23.89;39.15
79455;BME280;68900;52.134;5.420;2023-06-10T21:54:44;101662.00;;;23.83;38.82
79455;BME280;68900;52.134;5.420;2023-06-10T21:57:10;101665.03;;;23.74;39.88
79455;BME280;68900;52.134;5.420;2023-06-10T21:59:40;101659.97;;;23.65;40.35
79455;BME280;68900;52.134;5.420;2023-06-10T22:02:27;101659.16;;;23.58;40.13
79455;BME280;68900;52.134;5.420;2023-06-10T22:05:11;101660.88;;;23.52;40.03
79455;BME280;68900;52.134;5.420;2023-06-10T22:08:04;101657.47;;;23.44;40.12
79455;BME280;68900;52.134;5.420;2023-06-10T22:10:55;101655.78;;;23.36;40.80
79455;BME280;68900;52.134;5.420;2023-06-10T22:14:07;101657.72;;;23.29;40.42
79455;BME280;68900;52.134;5.420;2023-06-10T22:16:36;101646.69;;;23.22;41.31
79455;BME280;68900;52.134;5.420;2023-06-10T22:19:03;101656.25;;;23.20;41.60
79455;BME280;68900;52.134;5.420;2023-06-10T22:21:51;101649.69;;;23.14;41.32
79455;BME280;68900;52.134;5.420;2023-06-10T22:24:36;101654.13;;;23.09;41.50
79455;BME280;68900;52.134;5.420;2023-06-10T22:27:18;101652.66;;;23.06;41.78
79455;BME280;68900;52.134;5.420;2023-06-10T22:29:51;101646.09;;;23.01;42.30
79455;BME280;68900;52.134;5.420;2023-06-10T22:33:14;101656.25;;;22.94;42.15
79455;BME280;68900;52.134;5.420;2023-06-10T22:35:49;101649.94;;;22.93;42.47
79455;BME280;68900;52.134;5.420;2023-06-10T22:38:28;101647.56;;;22.90;42.50
79455;BME280;68900;52.134;5.420;2023-06-10T22:40:57;101652.03;;;22.84;42.86
79455;BME280;68900;52.134;5.420;2023-06-10T22:49:53;101660.47;;;22.63;43.31
79455;BME280;68900;52.134;5.420;2023-06-10T22:52:22;101650.53;;;22.56;43.68
79455;BME280;68900;52.134;5.420;2023-06-10T22:54:54;101650.06;;;22.52;43.78
79455;BME280;68900;52.134;5.420;2023-06-10T22:57:40;101661.69;;;22.47;43.72
79455;BME280;68900;52.134;5.420;2023-06-10T23:00:25;101653.66;;;22.39;44.17
79455;BME280;68900;52.134;5.420;2023-06-10T23:02:52;101646.47;;;22.32;44.35
79455;BME280;68900;52.134;5.420;2023-06-10T23:05:40;101660.41;;;22.24;44.56
79455;BME280;68900;52.134;5.420;2023-06-10T23:08:06;101646.84;;;22.16;43.86
79455;BME280;68900;52.134;5.420;2023-06-10T23:10:51;101650.47;;;22.23;44.27
79455;BME280;68900;52.134;5.420;2023-06-10T23:13:20;101644.31;;;22.21;44.69
79455;BME280;68900;52.134;5.420;2023-06-10T23:16:02;101647.72;;;22.23;44.39
79455;BME280;68900;52.134;5.420;2023-06-10T23:18:40;101653.22;;;22.23;44.44
79455;BME280;68900;52.134;5.420;2023-06-10T23:21:17;101643.69;;;22.19;44.86
79455;BME280;68900;52.134;5.420;2023-06-10T23:23:54;101646.84;;;22.16;44.42
79455;BME280;68900;52.134;5.420;2023-06-10T23:26:44;101645.97;;;22.15;44.53
79455;BME280;68900;52.134;5.420;2023-06-10T23:29:14;101651.28;;;22.17;45.38
79455;BME280;68900;52.134;5.420;2023-06-10T23:31:50;101648.53;;;22.10;45.35
79455;BME280;68900;52.134;5.420;2023-06-10T23:34:24;101652.34;;;22.16;45.22
79455;BME280;68900;52.134;5.420;2023-06-10T23:42:08;101648.47;;;21.97;46.64
79455;BME280;68900;52.134;5.420;2023-06-10T23:44:52;101650.09;;;21.85;45.79
79455;BME280;68900;52.134;5.420;2023-06-10T23:47:35;101658.53;;;21.83;46.53
79455;BME280;68900;52.134;5.420;2023-06-10T23:50:03;101647.78;;;21.82;47.03
79455;BME280;68900;52.134;5.420;2023-06-10T23:52:48;101641.00;;;21.84;46.70
79455;BME280;68900;52.134;5.420;2023-06-10T23:55:32;101642.47;;;21.80;47.14
79455;BME280;68900;52.134;5.420;2023-06-10T23:58:19;101644.53;;;21.72;47.01
